createdAt,value
2022-07-29T04:06:43.615Z,2.70
2022-07-29T04:07:43.565Z,2.60
2022-07-29T04:08:43.558Z,2.70
2022-07-29T04:09:43.468Z,2.40
2022-07-29T04:10:43.470Z,2.30
2022-07-29T04:12:02.035Z,2.70
2022-07-29T04:12:44.476Z,2.50
2022-07-29T04:13:43.591Z,2.50
2022-07-29T04:14:43.470Z,2.50
2022-07-29T04:15:43.548Z,2.60
2022-07-29T04:16:43.397Z,2.40
2022-07-29T04:17:43.389Z,2.80
2022-07-29T04:18:43.393Z,2.50
2022-07-29T04:19:43.461Z,2.50
2022-07-29T04:20:43.432Z,2.30
2022-07-29T04:21:43.341Z,2.50
2022-07-29T04:22:43.320Z,2.80
2022-07-29T04:23:47.913Z,2.40
2022-07-29T04:24:44.638Z,2.50
2022-07-29T04:25:43.288Z,3.00
2022-07-29T04:26:43.252Z,2.70
2022-07-29T04:27:43.269Z,2.40
2022-07-29T04:28:43.313Z,2.50
2022-07-29T04:29:57.046Z,2.50
2022-07-29T04:30:44.275Z,2.10
2022-07-29T04:31:43.349Z,2.30
2022-07-29T04:32:43.212Z,2.90
2022-07-29T04:33:43.282Z,2.10
2022-07-29T04:34:43.145Z,2.30
2022-07-29T04:35:45.701Z,2.50
2022-07-29T04:36:44.155Z,2.50
2022-07-29T04:37:43.284Z,3.30
2022-07-29T04:38:44.035Z,2.60
2022-07-29T04:39:43.118Z,2.50
2022-07-29T04:40:43.204Z,2.80
2022-07-29T04:41:43.055Z,2.60
2022-07-29T04:42:46.361Z,2.60
2022-07-29T04:43:43.182Z,2.10
2022-07-29T04:44:43.341Z,2.80
2022-07-29T04:45:42.998Z,2.20
2022-07-29T04:46:43.013Z,2.30
2022-07-29T04:47:43.017Z,2.00
2022-07-29T04:48:43.004Z,2.40
2022-07-29T04:49:43.088Z,2.40
2022-07-29T04:50:42.911Z,2.40
2022-07-29T04:51:42.951Z,2.00
2022-07-29T04:52:42.912Z,2.00
2022-07-29T04:53:42.887Z,2.40
2022-07-29T04:54:42.851Z,2.20
2022-07-29T04:55:42.839Z,2.70
2022-07-29T04:56:43.627Z,2.10
2022-07-29T04:57:42.840Z,2.80
2022-07-29T04:58:43.685Z,2.40
2022-07-29T04:59:42.813Z,2.50
2022-07-29T05:00:42.910Z,2.30
2022-07-29T05:01:42.918Z,2.50
2022-07-29T05:02:42.885Z,2.50
2022-07-29T05:03:43.750Z,2.70
2022-07-29T05:04:42.735Z,2.50
2022-07-29T05:05:42.802Z,2.30
2022-07-29T05:06:42.852Z,2.40
2022-07-29T05:07:42.822Z,2.60
2022-07-29T05:08:42.683Z,2.20
2022-07-29T05:09:42.732Z,2.40
2022-07-29T05:10:42.626Z,2.50
2022-07-29T05:11:42.683Z,2.30
2022-07-29T05:12:42.590Z,2.20
2022-07-29T05:13:45.741Z,2.20
2022-07-29T05:14:42.604Z,2.40
2022-07-29T05:15:42.823Z,2.10
2022-07-29T05:16:42.585Z,2.40
2022-07-29T05:17:42.597Z,2.40
2022-07-29T05:18:42.568Z,2.50
2022-07-29T05:19:42.695Z,2.50
2022-07-29T05:20:42.495Z,2.60
2022-07-29T05:21:42.507Z,2.40
2022-07-29T05:22:42.577Z,2.30
2022-07-29T05:23:42.437Z,2.50
2022-07-29T05:24:42.425Z,2.50
2022-07-29T05:25:44.235Z,1.90
2022-07-29T05:26:42.467Z,2.30
2022-07-29T05:27:42.442Z,2.20
2022-07-29T05:28:42.396Z,2.30
2022-07-29T05:29:44.614Z,2.30
2022-07-29T05:30:42.370Z,1.90
2022-07-29T05:31:42.454Z,1.90
2022-07-29T05:32:42.351Z,2.00
2022-07-29T05:33:42.330Z,2.10
2022-07-29T05:34:50.069Z,2.00
2022-07-29T05:35:43.259Z,2.40
2022-07-29T05:36:42.290Z,2.00
2022-07-29T05:37:42.292Z,2.20
2022-07-29T05:38:42.220Z,2.00
2022-07-29T05:39:47.487Z,1.80
2022-07-29T05:40:43.293Z,1.90
2022-07-29T05:41:42.191Z,2.00
2022-07-29T05:42:42.332Z,1.90
2022-07-29T05:43:42.163Z,2.30
2022-07-29T05:44:42.133Z,2.40
2022-07-29T05:45:49.243Z,2.00
2022-07-29T05:46:43.195Z,2.30
2022-07-29T05:47:42.265Z,2.60
2022-07-29T05:48:42.216Z,2.10
2022-07-29T05:49:42.043Z,2.30
2022-07-29T05:50:44.195Z,2.50
2022-07-29T05:51:42.021Z,2.10
2022-07-29T05:52:42.147Z,2.20
2022-07-29T05:53:42.088Z,1.90
2022-07-29T05:54:42.025Z,2.00
2022-07-29T05:55:42.075Z,2.30
2022-07-29T05:56:41.999Z,2.10
2022-07-29T05:57:41.956Z,1.90
2022-07-29T05:58:42.037Z,2.00
2022-07-29T05:59:42.032Z,2.30
2022-07-29T06:00:42.017Z,2.10
2022-07-29T06:01:41.951Z,2.00
2022-07-29T06:02:41.936Z,2.00
2022-07-29T06:03:41.918Z,1.70
2022-07-29T06:04:41.891Z,2.00
2022-07-29T06:05:42.225Z,2.00
2022-07-29T06:06:41.909Z,2.00
2022-07-29T06:07:41.811Z,1.70
2022-07-29T06:08:42.782Z,2.00
2022-07-29T06:09:41.800Z,1.90
2022-07-29T06:10:41.982Z,2.00
2022-07-29T06:11:41.760Z,2.50
2022-07-29T06:12:41.791Z,2.40
2022-07-29T06:13:41.750Z,1.70
2022-07-29T06:14:41.763Z,2.10
2022-07-29T06:15:41.829Z,2.10
2022-07-29T06:16:41.736Z,1.80
2022-07-29T06:18:00.510Z,1.80
2022-07-29T06:18:42.634Z,2.00
2022-07-29T06:19:41.640Z,2.40
2022-07-29T06:20:41.625Z,2.00
2022-07-29T06:21:42.165Z,2.00
2022-07-29T06:22:41.646Z,2.20
2022-07-29T06:23:41.630Z,2.50
2022-07-29T06:24:41.557Z,1.50
2022-07-29T06:25:41.652Z,2.10
2022-07-29T06:26:41.670Z,2.00
2022-07-29T06:27:41.539Z,2.00
2022-07-29T06:28:41.546Z,2.10
2022-07-29T06:29:41.528Z,1.70
2022-07-29T06:30:41.524Z,2.00
2022-07-29T06:31:41.514Z,2.00
2022-07-29T06:32:43.375Z,2.00
2022-07-29T06:33:41.459Z,2.10
2022-07-29T06:34:41.474Z,2.10
2022-07-29T06:35:42.738Z,2.40
2022-07-29T06:36:42.430Z,2.10
2022-07-29T06:37:41.511Z,2.10
2022-07-29T06:38:44.874Z,1.90
2022-07-29T06:39:42.400Z,2.10
2022-07-29T06:40:41.384Z,1.80
2022-07-29T06:41:41.321Z,2.20
2022-07-29T06:42:41.352Z,2.00
2022-07-29T06:43:51.741Z,1.80
2022-07-29T06:44:42.273Z,1.90
2022-07-29T06:45:41.363Z,2.50
2022-07-29T06:46:41.332Z,1.80
2022-07-29T06:47:41.223Z,2.10
2022-07-29T06:48:41.339Z,1.70
2022-07-29T06:49:41.236Z,2.10
2022-07-29T06:50:41.175Z,1.80
2022-07-29T06:51:41.200Z,1.70
2022-07-29T06:52:41.177Z,1.90
2022-07-29T06:54:01.603Z,2.00
2022-07-29T06:54:42.170Z,2.00
2022-07-29T06:55:41.155Z,1.80
2022-07-29T06:56:41.134Z,2.10
2022-07-29T06:57:41.148Z,2.40
2022-07-29T06:58:41.149Z,1.70
2022-07-29T06:59:41.079Z,2.20
2022-07-29T07:00:41.069Z,2.30
2022-07-29T07:01:41.134Z,2.10
2022-07-29T07:02:41.081Z,2.10
2022-07-29T07:03:41.039Z,1.90
2022-07-29T07:04:41.008Z,2.00
2022-07-29T07:05:40.960Z,1.90
2022-07-29T07:06:40.959Z,1.90
2022-07-29T07:07:41.010Z,2.20
2022-07-29T07:08:40.960Z,2.10
2022-07-29T07:09:41.124Z,2.20
2022-07-29T07:10:40.984Z,1.90
2022-07-29T07:11:40.944Z,1.90
2022-07-29T07:12:40.925Z,2.00
2022-07-29T07:13:40.919Z,1.90
2022-07-29T07:14:40.874Z,2.00
2022-07-29T07:15:40.852Z,2.10
2022-07-29T07:16:40.937Z,2.10
2022-07-29T07:17:40.980Z,2.10
2022-07-29T07:18:40.949Z,1.90
2022-07-29T07:19:40.826Z,2.30
2022-07-29T07:20:40.974Z,2.00
2022-07-29T07:21:40.968Z,1.80
2022-07-29T07:22:41.015Z,2.10
2022-07-29T07:23:40.759Z,2.00
2022-07-29T07:24:40.847Z,2.10
2022-07-29T07:25:40.777Z,1.70
2022-07-29T07:26:40.816Z,2.40
2022-07-29T07:27:40.899Z,2.00
2022-07-29T07:28:40.766Z,2.10
2022-07-29T07:29:40.873Z,2.20
2022-07-29T07:30:40.756Z,2.00
2022-07-29T07:31:40.720Z,2.30
2022-07-29T07:32:40.669Z,2.20
2022-07-29T07:33:40.650Z,2.20
2022-07-29T07:34:40.592Z,2.60
2022-07-29T07:35:40.658Z,2.20
2022-07-29T07:36:40.600Z,2.20
2022-07-29T07:37:40.590Z,2.20
2022-07-29T07:38:40.702Z,1.80
2022-07-29T07:39:40.694Z,2.20
2022-07-29T07:40:40.661Z,2.00
2022-07-29T07:41:40.633Z,1.90
2022-07-29T07:42:40.493Z,2.10
2022-07-29T07:43:40.519Z,2.20
2022-07-29T07:45:03.853Z,2.00
2022-07-29T07:45:41.614Z,1.70
2022-07-29T07:46:40.482Z,2.10
2022-07-29T07:47:40.413Z,1.70
2022-07-29T07:48:40.466Z,2.00
2022-07-29T07:49:40.406Z,1.90
2022-07-29T07:50:41.216Z,2.10
2022-07-29T07:51:40.457Z,1.90
2022-07-29T07:52:40.397Z,2.10
2022-07-29T07:53:40.407Z,1.90
2022-07-29T07:54:40.302Z,1.80
2022-07-29T07:56:08.110Z,1.90
2022-07-29T07:56:41.307Z,1.80
2022-07-29T07:57:40.268Z,2.00
2022-07-29T07:58:41.225Z,1.60
2022-07-29T07:59:40.338Z,1.90
2022-07-29T08:00:41.080Z,2.10
2022-07-29T08:01:47.981Z,2.30
2022-07-29T08:02:42.195Z,2.20
2022-07-29T08:03:40.252Z,2.00
2022-07-29T08:04:41.143Z,2.20
2022-07-29T08:05:40.242Z,1.90
2022-07-29T08:06:40.193Z,2.20
2022-07-29T08:07:40.212Z,1.80
2022-07-29T08:08:40.394Z,1.90
2022-07-29T08:09:40.106Z,2.20
2022-07-29T08:10:41.090Z,2.20
2022-07-29T08:11:40.116Z,1.70
2022-07-29T08:12:41.096Z,2.30
2022-07-29T08:13:40.192Z,2.20
2022-07-29T08:14:40.067Z,2.10
2022-07-29T08:15:40.037Z,2.10
2022-07-29T08:16:40.107Z,2.00
2022-07-29T08:17:40.060Z,1.70
2022-07-29T08:18:40.850Z,2.10
2022-07-29T08:19:40.234Z,1.80
2022-07-29T08:20:40.144Z,1.90
2022-07-29T08:21:40.117Z,2.00
2022-07-29T08:22:40.052Z,2.60
2022-07-29T08:23:47.195Z,1.80
2022-07-29T08:24:41.029Z,2.20
2022-07-29T08:25:40.527Z,2.30
2022-07-29T08:26:39.993Z,2.70
2022-07-29T08:27:44.222Z,2.00
2022-07-29T08:28:39.885Z,1.60
2022-07-29T08:29:40.524Z,1.90
2022-07-29T08:30:39.845Z,2.40
2022-07-29T08:31:40.231Z,2.00
2022-07-29T08:32:55.979Z,2.10
2022-07-29T08:33:40.782Z,2.20
2022-07-29T08:34:40.465Z,1.80
2022-07-29T08:35:40.648Z,2.10
2022-07-29T08:36:39.789Z,2.10
2022-07-29T08:37:40.528Z,2.00
2022-07-29T08:38:39.758Z,2.30
2022-07-29T08:39:40.502Z,2.20
2022-07-29T08:40:41.630Z,1.90
2022-07-29T08:41:42.731Z,2.20
2022-07-29T08:42:41.590Z,2.00
2022-07-29T08:43:40.470Z,2.40
2022-07-29T08:44:40.372Z,2.30
2022-07-29T08:45:39.658Z,2.00
2022-07-29T08:46:40.595Z,2.00
2022-07-29T08:47:39.658Z,2.00
2022-07-29T08:48:39.645Z,1.90
2022-07-29T08:49:39.568Z,2.10
2022-07-29T08:50:39.561Z,1.80
2022-07-29T08:51:49.301Z,2.20
2022-07-29T08:52:40.549Z,2.10
2022-07-29T08:53:39.514Z,2.10
2022-07-29T08:54:39.531Z,1.90
2022-07-29T08:55:39.506Z,2.30
2022-07-29T08:56:39.532Z,1.90
2022-07-29T08:57:39.444Z,2.00
2022-07-29T08:58:40.506Z,1.90
2022-07-29T08:59:39.441Z,2.40
2022-07-29T09:00:39.485Z,2.20
2022-07-29T09:01:42.577Z,1.80
2022-07-29T09:02:40.369Z,1.90
2022-07-29T09:03:39.530Z,1.80
2022-07-29T09:04:39.364Z,1.90
2022-07-29T09:05:41.978Z,1.50
2022-07-29T09:06:39.321Z,2.20
2022-07-29T09:07:39.343Z,1.80
2022-07-29T09:08:39.324Z,2.00
2022-07-29T09:09:39.299Z,2.00
2022-07-29T09:10:39.262Z,2.10
2022-07-29T09:11:39.276Z,1.80
2022-07-29T09:12:39.227Z,2.40
2022-07-29T09:13:39.306Z,1.80
2022-07-29T09:14:39.238Z,1.80
2022-07-29T09:15:39.220Z,1.80
2022-07-29T09:16:52.665Z,2.00
2022-07-29T09:17:40.322Z,2.20
2022-07-29T09:18:39.164Z,1.90
2022-07-29T09:19:39.167Z,2.20
2022-07-29T09:20:40.149Z,1.90
2022-07-29T09:21:39.184Z,2.00
2022-07-29T09:22:41.991Z,1.90
2022-07-29T09:23:39.108Z,1.90
2022-07-29T09:24:39.087Z,1.80
2022-07-29T09:25:39.139Z,2.00
2022-07-29T09:26:39.160Z,1.80
2022-07-29T09:27:39.572Z,2.00
2022-07-29T09:28:39.031Z,1.90
2022-07-29T09:29:39.063Z,1.70
2022-07-29T09:30:38.984Z,2.70
2022-07-29T09:31:39.082Z,2.20
2022-07-29T09:32:38.983Z,2.10
2022-07-29T09:33:38.974Z,1.90
2022-07-29T09:34:38.955Z,2.40
2022-07-29T09:35:38.956Z,2.60
2022-07-29T09:36:38.937Z,2.00
2022-07-29T09:37:38.915Z,1.80
2022-07-29T09:38:38.935Z,1.70
2022-07-29T09:39:38.906Z,1.90
2022-07-29T09:40:38.897Z,1.70
2022-07-29T09:41:38.929Z,2.10
2022-07-29T09:42:38.877Z,2.00
2022-07-29T09:43:38.849Z,1.70
2022-07-29T09:44:38.812Z,2.00
2022-07-29T09:45:38.849Z,1.90
2022-07-29T09:46:38.865Z,2.10
2022-07-29T09:47:38.780Z,1.80
2022-07-29T09:48:38.815Z,1.90
2022-07-29T09:49:38.791Z,1.70
2022-07-29T09:50:38.782Z,2.00
2022-07-29T09:51:39.286Z,2.40
2022-07-29T09:52:38.714Z,1.80
2022-07-29T09:53:38.705Z,1.80
2022-07-29T09:54:38.705Z,1.80
2022-07-29T09:55:38.723Z,2.30
2022-07-29T09:56:38.748Z,2.10
2022-07-29T09:57:38.648Z,2.00
2022-07-29T09:58:38.645Z,1.90
2022-07-29T09:59:50.629Z,1.60
2022-07-29T10:00:39.739Z,1.80
2022-07-29T10:01:38.618Z,2.00
2022-07-29T10:02:38.622Z,1.90
2022-07-29T10:03:38.659Z,2.10
2022-07-29T10:04:38.550Z,1.90
2022-07-29T10:05:38.580Z,1.60
2022-07-29T10:06:38.581Z,1.70
2022-07-29T10:07:38.513Z,1.70
2022-07-29T10:08:38.528Z,1.90
2022-07-29T10:09:38.537Z,1.60
2022-07-29T10:10:38.512Z,2.00
2022-07-29T10:11:49.005Z,2.00
2022-07-29T10:12:39.485Z,1.80
2022-07-29T10:13:38.421Z,1.70
2022-07-29T10:14:38.467Z,1.80
2022-07-29T10:15:38.405Z,1.60
2022-07-29T10:16:38.507Z,1.40
2022-07-29T10:17:41.704Z,1.70
2022-07-29T10:18:38.445Z,2.10
2022-07-29T10:19:38.380Z,1.90
2022-07-29T10:20:38.336Z,1.80
2022-07-29T10:21:38.355Z,1.50
2022-07-29T10:22:54.191Z,1.80
2022-07-29T10:23:46.954Z,1.50
2022-07-29T10:24:39.365Z,1.90
2022-07-29T10:25:38.331Z,1.50
2022-07-29T10:26:38.432Z,1.70
2022-07-29T10:27:38.272Z,1.80
2022-07-29T10:28:38.241Z,1.70
2022-07-29T10:29:38.252Z,2.00
2022-07-29T10:30:38.230Z,1.90
2022-07-29T10:31:38.254Z,1.70
2022-07-29T10:32:38.234Z,1.70
2022-07-29T10:33:38.235Z,2.20
2022-07-29T10:34:38.220Z,1.60
2022-07-29T10:35:38.216Z,1.80
2022-07-29T10:36:38.417Z,1.60
2022-07-29T10:37:38.170Z,1.50
2022-07-29T10:38:39.105Z,1.90
2022-07-29T10:39:44.319Z,1.90
2022-07-29T10:40:41.332Z,1.80
2022-07-29T10:41:43.716Z,2.00
2022-07-29T10:42:39.047Z,1.70
2022-07-29T10:43:38.055Z,1.80
2022-07-29T10:44:38.151Z,1.80
2022-07-29T10:45:38.038Z,1.70
2022-07-29T10:46:38.095Z,1.80
2022-07-29T10:47:37.969Z,1.80
2022-07-29T10:48:38.088Z,1.50
2022-07-29T10:49:38.089Z,1.50
2022-07-29T10:50:37.972Z,1.70
2022-07-29T10:51:38.025Z,2.10
2022-07-29T10:52:38.117Z,1.70
2022-07-29T10:53:39.794Z,1.80
2022-07-29T10:54:38.281Z,1.70
2022-07-29T10:55:38.419Z,1.70
2022-07-29T10:56:42.354Z,1.60
2022-07-29T10:57:53.121Z,1.40
2022-07-29T10:58:41.080Z,1.70
2022-07-29T10:59:37.877Z,1.40
2022-07-29T11:00:37.953Z,1.70
2022-07-29T11:01:39.027Z,1.80
2022-07-29T11:02:41.870Z,1.70
2022-07-29T11:03:38.885Z,1.70
2022-07-29T11:04:37.805Z,1.70
2022-07-29T11:05:40.759Z,1.80
2022-07-29T11:06:37.823Z,2.10
2022-07-29T11:07:42.622Z,1.70
2022-07-29T11:08:38.726Z,1.70
2022-07-29T11:09:38.505Z,1.90
2022-07-29T11:10:37.815Z,1.80
2022-07-29T11:11:37.783Z,1.80
2022-07-29T11:12:37.766Z,1.70
2022-07-29T11:13:41.362Z,1.80
2022-07-29T11:14:37.769Z,1.80
2022-07-29T11:15:37.810Z,2.00
2022-07-29T11:16:37.607Z,1.80
2022-07-29T11:17:52.097Z,1.60
2022-07-29T11:18:38.761Z,1.90
2022-07-29T11:19:40.213Z,1.90
2022-07-29T11:20:37.789Z,2.00
2022-07-29T11:21:53.507Z,1.70
2022-07-29T11:22:43.119Z,2.20
2022-07-29T11:23:38.591Z,2.20
2022-07-29T11:24:38.565Z,2.10
2022-07-29T11:25:42.444Z,2.00
2022-07-29T11:26:38.538Z,2.20
2022-07-29T11:27:37.486Z,1.60
2022-07-29T11:28:37.485Z,1.80
2022-07-29T11:29:40.062Z,1.80
2022-07-29T11:30:37.458Z,1.80
2022-07-29T11:31:37.423Z,1.70
2022-07-29T11:32:37.421Z,1.70
2022-07-29T11:33:56.439Z,1.90
2022-07-29T11:34:38.476Z,1.90
2022-07-29T11:35:39.920Z,1.90
2022-07-29T11:36:37.401Z,2.00
2022-07-29T11:37:42.507Z,1.80
2022-07-29T11:38:38.351Z,1.40
2022-07-29T11:39:37.692Z,1.80
2022-07-29T11:40:37.302Z,2.00
2022-07-29T11:41:37.341Z,1.60
2022-07-29T11:42:37.294Z,1.60
2022-07-29T11:43:37.281Z,1.60
2022-07-29T11:44:37.373Z,1.80
2022-07-29T11:45:43.336Z,1.80
2022-07-29T11:46:38.216Z,1.70
2022-07-29T11:47:39.512Z,1.40
2022-07-29T11:48:38.288Z,1.80
2022-07-29T11:49:37.188Z,1.70
2022-07-29T11:50:37.265Z,1.80
2022-07-29T11:51:38.231Z,1.40
2022-07-29T11:52:38.238Z,1.70
2022-07-29T11:53:38.227Z,1.60
2022-07-29T11:54:52.267Z,1.40
2022-07-29T11:55:38.139Z,1.60
2022-07-29T11:56:38.163Z,1.60
2022-07-29T11:57:37.476Z,1.30
2022-07-29T11:58:37.094Z,1.60
2022-07-29T11:59:37.181Z,1.80
2022-07-29T12:00:38.047Z,1.50
2022-07-29T12:01:37.877Z,1.80
2022-07-29T12:02:38.252Z,1.40
2022-07-29T12:03:37.322Z,1.60
2022-07-29T12:04:37.010Z,1.80
2022-07-29T12:05:37.180Z,1.70
2022-07-29T12:06:37.490Z,1.60
2022-07-29T12:07:37.096Z,2.00
2022-07-29T12:08:37.046Z,1.50
2022-07-29T12:09:40.423Z,1.50
2022-07-29T12:10:37.004Z,2.00
2022-07-29T12:11:37.003Z,1.90
2022-07-29T12:12:36.896Z,1.70
2022-07-29T12:13:37.840Z,1.70
2022-07-29T12:14:36.948Z,1.60
2022-07-29T12:15:45.909Z,2.00
2022-07-29T12:16:37.922Z,1.80
2022-07-29T12:17:36.898Z,1.80
2022-07-29T12:18:36.860Z,2.20
2022-07-29T12:19:36.874Z,1.70
2022-07-29T12:20:36.818Z,1.80
2022-07-29T12:21:36.761Z,1.60
2022-07-29T12:22:37.842Z,1.60
2022-07-29T12:23:36.962Z,1.80
2022-07-29T12:24:36.727Z,1.70
2022-07-29T12:25:36.766Z,2.10
2022-07-29T12:26:37.546Z,1.60
2022-07-29T12:27:40.427Z,1.60
2022-07-29T12:28:36.678Z,1.80
2022-07-29T12:29:36.724Z,1.70
2022-07-29T12:30:36.654Z,1.70
2022-07-29T12:31:42.059Z,2.00
2022-07-29T12:32:37.856Z,2.00
2022-07-29T12:33:36.614Z,1.70
2022-07-29T12:34:36.680Z,1.50
2022-07-29T12:35:36.614Z,1.70
2022-07-29T12:36:36.587Z,1.80
2022-07-29T12:37:42.473Z,1.70
2022-07-29T12:38:37.614Z,1.80
2022-07-29T12:39:36.539Z,1.80
2022-07-29T12:40:36.610Z,1.80
2022-07-29T12:41:36.542Z,1.50
2022-07-29T12:42:36.510Z,1.90
2022-07-29T12:43:36.625Z,1.90
2022-07-29T12:44:36.513Z,1.80
2022-07-29T12:45:36.456Z,1.90
2022-07-29T12:46:36.547Z,1.80
2022-07-29T12:47:36.453Z,1.70
2022-07-29T12:48:36.463Z,1.70
2022-07-29T12:49:37.985Z,1.50
2022-07-29T12:50:36.396Z,2.00
2022-07-29T12:51:36.393Z,1.80
2022-07-29T12:52:36.385Z,1.60
2022-07-29T12:53:36.379Z,2.30
2022-07-29T12:54:36.364Z,1.80
2022-07-29T12:55:36.356Z,1.70
2022-07-29T12:56:44.711Z,1.80
2022-07-29T12:57:37.368Z,1.60
2022-07-29T12:58:36.288Z,1.70
2022-07-29T12:59:36.298Z,1.90
2022-07-29T13:00:36.350Z,1.60
2022-07-29T13:01:36.257Z,1.70
2022-07-29T13:02:37.570Z,1.70
2022-07-29T13:03:36.220Z,1.60
2022-07-29T13:04:36.253Z,1.70
2022-07-29T13:05:36.371Z,1.50
2022-07-29T13:06:36.205Z,1.60
2022-07-29T13:07:55.389Z,2.00
2022-07-29T13:08:37.193Z,2.00
2022-07-29T13:09:36.163Z,1.80
2022-07-29T13:10:36.131Z,1.70
2022-07-29T13:11:36.102Z,1.90
2022-07-29T13:12:36.223Z,1.60
2022-07-29T13:13:36.174Z,1.50
2022-07-29T13:14:36.094Z,1.80
2022-07-29T13:15:36.083Z,1.50
2022-07-29T13:16:36.153Z,1.70
2022-07-29T13:17:36.086Z,1.60
2022-07-29T13:18:36.117Z,1.90
2022-07-29T13:19:36.038Z,1.80
2022-07-29T13:20:36.054Z,1.90
2022-07-29T13:21:35.986Z,1.60
2022-07-29T13:22:36.020Z,2.00
2022-07-29T13:23:38.201Z,1.80
2022-07-29T13:24:35.958Z,1.60
2022-07-29T13:25:36.019Z,1.80
2022-07-29T13:26:35.943Z,1.70
2022-07-29T13:27:35.951Z,1.50
2022-07-29T13:28:35.939Z,2.20
2022-07-29T13:29:35.901Z,1.80
2022-07-29T13:30:36.154Z,1.90
2022-07-29T13:31:36.866Z,2.10
2022-07-29T13:32:35.863Z,1.80
2022-07-29T13:33:35.883Z,1.70
2022-07-29T13:34:35.873Z,1.70
2022-07-29T13:35:35.904Z,2.10
2022-07-29T13:36:38.760Z,1.80
2022-07-29T13:37:36.835Z,1.80
2022-07-29T13:38:35.915Z,1.60
2022-07-29T13:39:35.790Z,2.00
2022-07-29T13:40:35.789Z,1.40
2022-07-29T13:41:35.747Z,2.00
2022-07-29T13:42:35.766Z,2.40
2022-07-29T13:43:35.714Z,2.10
2022-07-29T13:44:35.711Z,1.70
2022-07-29T13:45:35.782Z,1.90
2022-07-29T13:46:35.714Z,1.90
2022-07-29T13:47:35.676Z,1.60
2022-07-29T13:48:35.683Z,2.50
2022-07-29T13:49:35.641Z,1.70
2022-07-29T13:50:35.633Z,1.50
2022-07-29T13:51:35.641Z,1.80
2022-07-29T13:52:35.629Z,1.70
2022-07-29T13:53:35.592Z,1.80
2022-07-29T13:54:38.860Z,1.50
2022-07-29T13:55:36.624Z,1.60
2022-07-29T13:56:37.535Z,1.90
2022-07-29T13:57:35.584Z,1.90
2022-07-29T13:58:35.535Z,1.60
2022-07-29T13:59:35.495Z,1.70
2022-07-29T14:00:35.519Z,1.40
2022-07-29T14:01:35.588Z,2.00
2022-07-29T14:02:35.495Z,2.20
2022-07-29T14:03:35.576Z,2.30
2022-07-29T14:04:36.369Z,2.00
2022-07-29T14:05:35.456Z,2.00
2022-07-29T14:06:35.490Z,1.70
2022-07-29T14:07:35.443Z,1.50
2022-07-29T14:08:35.388Z,1.70
2022-07-29T14:09:41.290Z,1.70
2022-07-29T14:10:36.433Z,1.60
2022-07-29T14:11:35.360Z,2.00
2022-07-29T14:12:35.340Z,1.80
2022-07-29T14:13:35.350Z,1.60
2022-07-29T14:14:35.375Z,1.80
2022-07-29T14:15:35.424Z,2.00
2022-07-29T14:16:39.158Z,1.80
2022-07-29T14:17:36.542Z,2.10
2022-07-29T14:18:35.273Z,2.20
2022-07-29T14:19:35.284Z,2.20
2022-07-29T14:20:35.255Z,2.30
2022-07-29T14:21:35.253Z,2.10
2022-07-29T14:22:40.205Z,2.20
2022-07-29T14:23:36.236Z,2.10
2022-07-29T14:24:37.260Z,2.30
2022-07-29T14:25:35.256Z,2.00
2022-07-29T14:26:35.276Z,1.50
2022-07-29T14:27:38.277Z,1.90
2022-07-29T14:28:37.947Z,1.80
2022-07-29T14:29:38.248Z,1.90
2022-07-29T14:30:36.128Z,1.70
2022-07-29T14:31:35.157Z,2.30
2022-07-29T14:32:35.161Z,2.00
2022-07-29T14:33:35.110Z,2.20
2022-07-29T14:34:35.147Z,1.80
2022-07-29T14:35:35.114Z,2.00
2022-07-29T14:36:35.112Z,1.90
2022-07-29T14:37:37.553Z,2.10
2022-07-29T14:38:36.075Z,2.20
2022-07-29T14:39:38.154Z,1.70
2022-07-29T14:40:36.032Z,1.90
2022-07-29T14:41:34.988Z,2.20
2022-07-29T14:42:35.002Z,1.90
2022-07-29T14:43:34.995Z,2.70
2022-07-29T14:44:34.968Z,2.20
2022-07-29T14:45:35.054Z,2.00
2022-07-29T14:46:35.027Z,2.60
2022-07-29T14:47:34.996Z,1.60
2022-07-29T14:48:34.968Z,2.10
2022-07-29T14:49:34.972Z,1.90
2022-07-29T14:50:34.966Z,2.10
2022-07-29T14:51:34.930Z,2.50
2022-07-29T14:52:34.863Z,2.10
2022-07-29T14:53:34.858Z,1.80
2022-07-29T14:54:34.897Z,2.20
2022-07-29T14:55:36.778Z,2.10
2022-07-29T14:56:36.864Z,2.40
2022-07-29T14:57:34.913Z,2.10
2022-07-29T14:58:34.830Z,2.40
2022-07-29T14:59:34.771Z,2.10
2022-07-29T15:00:34.846Z,2.10
2022-07-29T15:01:34.820Z,1.80
2022-07-29T15:02:59.293Z,2.00
2022-07-29T15:03:35.792Z,2.30
2022-07-29T15:04:34.725Z,2.20
2022-07-29T15:05:34.787Z,2.20
2022-07-29T15:06:34.886Z,2.30
2022-07-29T15:07:34.747Z,2.30
2022-07-29T15:08:34.636Z,2.40
2022-07-29T15:09:40.298Z,2.40
2022-07-29T15:10:35.647Z,2.00
2022-07-29T15:11:38.473Z,2.50
2022-07-29T15:12:34.617Z,2.20
2022-07-29T15:13:34.573Z,2.10
2022-07-29T15:14:34.586Z,2.10
2022-07-29T15:15:34.558Z,2.00
2022-07-29T15:16:34.567Z,2.40
2022-07-29T15:17:34.559Z,2.20
2022-07-29T15:18:34.550Z,2.00
2022-07-29T15:19:35.513Z,2.20
2022-07-29T15:20:34.560Z,2.10
2022-07-29T15:21:34.469Z,2.20
2022-07-29T15:22:34.492Z,2.30
2022-07-29T15:23:34.465Z,2.10
2022-07-29T15:24:34.431Z,1.90
2022-07-29T15:25:34.461Z,2.30
2022-07-29T15:26:34.452Z,2.20
2022-07-29T15:27:34.444Z,2.10
2022-07-29T15:28:34.474Z,2.10
2022-07-29T15:29:34.363Z,2.20
2022-07-29T15:30:34.711Z,2.50
2022-07-29T15:31:34.423Z,2.20
2022-07-29T15:32:34.316Z,2.20
2022-07-29T15:33:34.307Z,2.10
2022-07-29T15:34:34.298Z,2.10
2022-07-29T15:35:40.541Z,2.00
2022-07-29T15:36:51.647Z,2.30
2022-07-29T15:37:49.264Z,2.10
2022-07-29T15:38:35.240Z,2.10
2022-07-29T15:39:35.299Z,1.90
2022-07-29T15:40:34.268Z,2.50
2022-07-29T15:41:34.311Z,2.70
2022-07-29T15:42:34.207Z,2.00
2022-07-29T15:43:34.273Z,2.30
2022-07-29T15:44:34.235Z,2.00
2022-07-29T15:45:37.188Z,2.40
2022-07-29T15:46:35.157Z,2.00
2022-07-29T15:47:34.202Z,2.00
2022-07-29T15:48:34.093Z,2.30
2022-07-29T15:49:47.190Z,2.30
2022-07-29T15:50:35.103Z,2.10
2022-07-29T15:51:34.075Z,2.10
2022-07-29T15:52:34.085Z,2.20
2022-07-29T15:53:35.287Z,2.40
2022-07-29T15:54:34.165Z,2.50
2022-07-29T15:55:34.045Z,2.40
2022-07-29T15:56:35.026Z,2.10
2022-07-29T15:57:34.006Z,2.60
2022-07-29T15:58:34.037Z,2.00
2022-07-29T15:59:34.034Z,2.00
2022-07-29T16:00:33.981Z,1.90
2022-07-29T16:01:33.979Z,2.30
2022-07-29T16:02:33.924Z,2.20
2022-07-29T16:03:34.459Z,2.80
2022-07-29T16:04:34.040Z,2.90
2022-07-29T16:05:33.910Z,2.50
2022-07-29T16:06:33.885Z,2.50
2022-07-29T16:07:34.332Z,2.10
2022-07-29T16:08:33.845Z,2.30
2022-07-29T16:09:33.814Z,2.60
2022-07-29T16:10:33.854Z,2.50
2022-07-29T16:11:33.783Z,2.30
2022-07-29T16:12:33.884Z,1.80
2022-07-29T16:13:33.824Z,2.00
2022-07-29T16:14:33.815Z,2.20
2022-07-29T16:15:34.259Z,2.30
2022-07-29T16:16:33.755Z,1.80
2022-07-29T16:17:33.767Z,2.20
2022-07-29T16:18:33.747Z,2.10
2022-07-29T16:19:33.718Z,1.80
2022-07-29T16:20:33.748Z,2.30
2022-07-29T16:21:33.697Z,2.20
2022-07-29T16:22:33.775Z,2.10
2022-07-29T16:23:33.713Z,2.50
2022-07-29T16:24:33.619Z,2.00
2022-07-29T16:25:58.452Z,1.80
2022-07-29T16:26:34.661Z,1.90
2022-07-29T16:27:37.501Z,2.10
2022-07-29T16:28:33.621Z,2.30
2022-07-29T16:29:33.621Z,2.10
2022-07-29T16:30:34.432Z,1.90
2022-07-29T16:31:33.662Z,2.10
2022-07-29T16:32:33.525Z,2.00
2022-07-29T16:33:54.398Z,2.10
2022-07-29T16:34:34.508Z,2.50
2022-07-29T16:35:39.632Z,2.10
2022-07-29T16:36:34.667Z,1.80
2022-07-29T16:37:33.556Z,2.10
2022-07-29T16:38:33.420Z,2.30
2022-07-29T16:39:33.450Z,2.40
2022-07-29T16:40:33.447Z,2.30
2022-07-29T16:41:33.442Z,1.90
2022-07-29T16:42:46.016Z,2.20
2022-07-29T16:43:34.569Z,2.20
2022-07-29T16:44:33.369Z,2.50
2022-07-29T16:45:43.870Z,2.50
2022-07-29T16:46:34.412Z,3.30
2022-07-29T16:47:33.461Z,4.10
2022-07-29T16:48:33.367Z,4.30
2022-07-29T16:49:33.490Z,4.50
2022-07-29T16:50:33.260Z,3.60
2022-07-29T16:51:33.281Z,2.70
2022-07-29T16:52:33.536Z,2.40
2022-07-29T16:53:33.283Z,2.10
2022-07-29T16:54:33.222Z,2.20
2022-07-29T16:55:33.293Z,2.10
2022-07-29T16:56:33.528Z,1.80
2022-07-29T16:57:33.230Z,2.80
2022-07-29T16:58:33.407Z,2.40
2022-07-29T16:59:33.234Z,2.50
2022-07-29T17:00:34.197Z,2.00
2022-07-29T17:01:33.254Z,3.10
2022-07-29T17:02:33.288Z,2.80
2022-07-29T17:03:33.255Z,2.20
2022-07-29T17:04:33.124Z,2.00
2022-07-29T17:05:52.265Z,2.40
2022-07-29T17:06:34.058Z,2.30
2022-07-29T17:07:33.038Z,2.00
2022-07-29T17:08:33.077Z,2.30
2022-07-29T17:09:33.049Z,2.40
2022-07-29T17:10:32.989Z,2.20
2022-07-29T17:11:53.764Z,2.10
2022-07-29T17:12:34.020Z,2.60
2022-07-29T17:13:32.980Z,2.10
2022-07-29T17:14:32.940Z,2.20
2022-07-29T17:15:32.933Z,2.10
2022-07-29T17:16:32.964Z,2.40
2022-07-29T17:17:39.115Z,2.00
2022-07-29T17:18:33.882Z,2.20
2022-07-29T17:19:32.873Z,2.40
2022-07-29T17:20:32.877Z,2.70
2022-07-29T17:21:34.874Z,2.80
2022-07-29T17:22:32.816Z,2.50
2022-07-29T17:23:32.821Z,2.40
2022-07-29T17:24:32.797Z,2.20